EZY2W EGCC-LGRP
Flight info
| Callsign | EZY2W |
|---|---|
| Flight time | N/A |
| Altitude | 37000 |
| Route | DESIG L603 DOLAS DCT NAVPI DCT DOJOH DCT DODEN DCT NEGIX DCT DINKU/N0457F390 M867 XERUM DCT BAVAX DCT RADIZ DCT DOL DCT MONID DCT NAVSU DCT EMKES DCT XELMI DCT AKIKA DCT ENFAR DCT PEP DCT TALAS UN130 MES UN139 LURUS UL995 CODIC |
| Aircraft | A20N/M-SDE2E3FGHIRWXY/LB1 |
Departure
| Time | N/A |
|---|---|
| Airport | Manchester Airport (EGCC) |
Arrival
| Time | 2026-04-28 21:21 |
|---|---|
| Airport | Rhodes International Airport "Diagoras" (LGRP) |
| Time | Latitude | Longitude | Altitude | Speed | Heading |
|---|---|---|---|---|---|
| 2026-04-28 20:57 | 36.85466 | 26.60485 | 24405 ft | 423 kts | 108° |
| 2026-04-28 20:58 | 36.84445 | 26.63916 | 23898 ft | 418 kts | 107° |
| 2026-04-28 20:58 | 36.83435 | 26.67266 | 23309 ft | 416 kts | 108° |
| 2026-04-28 20:58 | 36.82372 | 26.70602 | 22812 ft | 410 kts | 109° |
| 2026-04-28 20:58 | 36.81282 | 26.73883 | 22512 ft | 413 kts | 110° |
| 2026-04-28 20:59 | 36.80150 | 26.77221 | 22115 ft | 421 kts | 110° |
| 2026-04-28 20:59 | 36.78989 | 26.80604 | 21565 ft | 424 kts | 111° |
| 2026-04-28 20:59 | 36.77823 | 26.83978 | 20999 ft | 422 kts | 111° |
| 2026-04-28 20:59 | 36.76663 | 26.87328 | 20448 ft | 418 kts | 111° |
| 2026-04-28 21:00 | 36.75515 | 26.90644 | 19864 ft | 414 kts | 111° |
| 2026-04-28 21:00 | 36.74383 | 26.93913 | 19313 ft | 409 kts | 111° |
| 2026-04-28 21:00 | 36.73256 | 26.97165 | 18752 ft | 405 kts | 111° |
| 2026-04-28 21:00 | 36.72143 | 27.00377 | 18180 ft | 402 kts | 111° |
| 2026-04-28 21:01 | 36.71042 | 27.03554 | 17620 ft | 396 kts | 111° |
| 2026-04-28 21:01 | 36.69952 | 27.06696 | 17077 ft | 391 kts | 112° |
| 2026-04-28 21:01 | 36.68879 | 27.09783 | 16546 ft | 386 kts | 112° |
| 2026-04-28 21:01 | 36.67811 | 27.12852 | 15874 ft | 386 kts | 112° |
| 2026-04-28 21:02 | 36.66765 | 27.15851 | 15470 ft | 378 kts | 112° |
| 2026-04-28 21:02 | 36.65719 | 27.18841 | 14977 ft | 374 kts | 112° |
| 2026-04-28 21:02 | 36.64684 | 27.21800 | 14467 ft | 371 kts | 113° |
| 2026-04-28 21:02 | 36.63657 | 27.24732 | 13960 ft | 368 kts | 113° |
| 2026-04-28 21:03 | 36.62635 | 27.27648 | 13419 ft | 365 kts | 113° |
| 2026-04-28 21:03 | 36.61621 | 27.30532 | 12915 ft | 361 kts | 113° |
| 2026-04-28 21:03 | 36.60618 | 27.33383 | 12431 ft | 357 kts | 113° |
| 2026-04-28 21:03 | 36.59629 | 27.36195 | 11927 ft | 354 kts | 113° |
| 2026-04-28 21:04 | 36.58646 | 27.38987 | 11456 ft | 350 kts | 113° |
| 2026-04-28 21:04 | 36.57670 | 27.41754 | 10994 ft | 348 kts | 113° |
| 2026-04-28 21:04 | 36.56699 | 27.44508 | 10508 ft | 347 kts | 113° |
| 2026-04-28 21:04 | 36.55741 | 27.47219 | 10269 ft | 336 kts | 113° |
| 2026-04-28 21:05 | 36.54827 | 27.49803 | 10150 ft | 322 kts | 113° |
| 2026-04-28 21:05 | 36.53946 | 27.52294 | 10039 ft | 309 kts | 113° |
| 2026-04-28 21:05 | 36.53092 | 27.54707 | 9776 ft | 302 kts | 113° |
| 2026-04-28 21:05 | 36.52256 | 27.57066 | 9578 ft | 294 kts | 113° |
| 2026-04-28 21:06 | 36.51425 | 27.59410 | 9390 ft | 300 kts | 113° |
| 2026-04-28 21:06 | 36.50577 | 27.61801 | 9014 ft | 304 kts | 113° |
| 2026-04-28 21:06 | 36.49724 | 27.64203 | 8767 ft | 299 kts | 113° |
| 2026-04-28 21:06 | 36.48892 | 27.66545 | 8430 ft | 295 kts | 113° |
| 2026-04-28 21:07 | 36.48066 | 27.68869 | 8046 ft | 293 kts | 113° |
| 2026-04-28 21:07 | 36.47243 | 27.71181 | 7653 ft | 291 kts | 113° |
| 2026-04-28 21:07 | 36.46536 | 27.73510 | 7285 ft | 288 kts | 104° |
| 2026-04-28 21:07 | 36.46163 | 27.75948 | 6951 ft | 283 kts | 98° |
| 2026-04-28 21:08 | 36.45862 | 27.78285 | 6911 ft | 278 kts | 98° |
| 2026-04-28 21:08 | 36.45544 | 27.80682 | 6870 ft | 281 kts | 99° |
| 2026-04-28 21:08 | 36.45224 | 27.83072 | 6828 ft | 279 kts | 99° |
| 2026-04-28 21:08 | 36.44904 | 27.85450 | 6790 ft | 279 kts | 99° |
| 2026-04-28 21:09 | 36.44583 | 27.87827 | 6751 ft | 279 kts | 99° |
| 2026-04-28 21:09 | 36.44253 | 27.90202 | 6708 ft | 279 kts | 102° |
| 2026-04-28 21:09 | 36.43618 | 27.92470 | 6671 ft | 279 kts | 116° |
| 2026-04-28 21:09 | 36.42555 | 27.94491 | 6640 ft | 279 kts | 127° |
| 2026-04-28 21:10 | 36.41391 | 27.96418 | 6602 ft | 279 kts | 126° |
| 2026-04-28 21:10 | 36.40236 | 27.98353 | 6574 ft | 278 kts | 126° |
| 2026-04-28 21:10 | 36.39084 | 28.00293 | 6554 ft | 279 kts | 126° |
| 2026-04-28 21:10 | 36.37932 | 28.02234 | 6513 ft | 279 kts | 126° |
| 2026-04-28 21:11 | 36.36783 | 28.04170 | 6481 ft | 278 kts | 126° |
| 2026-04-28 21:11 | 36.35633 | 28.06106 | 6435 ft | 278 kts | 126° |
| 2026-04-28 21:11 | 36.34490 | 28.08030 | 6400 ft | 277 kts | 126° |
| 2026-04-28 21:11 | 36.33363 | 28.09925 | 6362 ft | 276 kts | 126° |
| 2026-04-28 21:12 | 36.32218 | 28.11847 | 6322 ft | 276 kts | 126° |
| 2026-04-28 21:12 | 36.31079 | 28.13759 | 6285 ft | 276 kts | 126° |
| 2026-04-28 21:12 | 36.29937 | 28.15676 | 6245 ft | 277 kts | 126° |
| 2026-04-28 21:12 | 36.28792 | 28.17596 | 6207 ft | 276 kts | 126° |
| 2026-04-28 21:13 | 36.27652 | 28.19507 | 6158 ft | 273 kts | 127° |
| 2026-04-28 21:13 | 36.26531 | 28.21384 | 6103 ft | 281 kts | 127° |
| 2026-04-28 21:13 | 36.25281 | 28.23475 | 6096 ft | 319 kts | 127° |
| 2026-04-28 21:13 | 36.24054 | 28.25859 | 6066 ft | 333 kts | 112° |
| 2026-04-28 21:14 | 36.23568 | 28.28643 | 6032 ft | 330 kts | 90° |
| 2026-04-28 21:14 | 36.23953 | 28.31326 | 5887 ft | 314 kts | 67° |
| 2026-04-28 21:14 | 36.25113 | 28.33486 | 5708 ft | 294 kts | 43° |
| 2026-04-28 21:14 | 36.26800 | 28.34738 | 5528 ft | 274 kts | 16° |
| 2026-04-28 21:15 | 36.28622 | 28.34880 | 5343 ft | 256 kts | 348° |
| 2026-04-28 21:15 | 36.30234 | 28.34058 | 4940 ft | 250 kts | 330° |
| 2026-04-28 21:15 | 36.31762 | 28.33033 | 4465 ft | 249 kts | 335° |
| 2026-04-28 21:15 | 36.33367 | 28.32301 | 4036 ft | 245 kts | 345° |
| 2026-04-28 21:16 | 36.35026 | 28.31891 | 3610 ft | 241 kts | 352° |
| 2026-04-28 21:16 | 36.36698 | 28.31696 | 3188 ft | 238 kts | 356° |
| 2026-04-28 21:16 | 36.38344 | 28.31610 | 2755 ft | 236 kts | 358° |
| 2026-04-28 21:16 | 36.39982 | 28.31565 | 2337 ft | 233 kts | 358° |
| 2026-04-28 21:17 | 36.41575 | 28.31530 | 2055 ft | 227 kts | 358° |
| 2026-04-28 21:17 | 36.43179 | 28.31491 | 1988 ft | 230 kts | 356° |
| 2026-04-28 21:17 | 36.44713 | 28.30979 | 1991 ft | 232 kts | 328° |
| 2026-04-28 21:17 | 36.45797 | 28.29549 | 1996 ft | 231 kts | 296° |
| 2026-04-28 21:18 | 36.46105 | 28.27589 | 1999 ft | 236 kts | 266° |
| 2026-04-28 21:18 | 36.45671 | 28.25693 | 1991 ft | 222 kts | 251° |
| 2026-04-28 21:18 | 36.45108 | 28.23940 | 1984 ft | 223 kts | 250° |
| 2026-04-28 21:18 | 36.44509 | 28.22175 | 1910 ft | 220 kts | 250° |
| 2026-04-28 21:19 | 36.43911 | 28.20381 | 1489 ft | 227 kts | 250° |
| 2026-04-28 21:19 | 36.43331 | 28.18548 | 1068 ft | 227 kts | 252° |
| 2026-04-28 21:19 | 36.42880 | 28.16780 | 786 ft | 208 kts | 255° |
| 2026-04-28 21:19 | 36.42469 | 28.15114 | 468 ft | 196 kts | 252° |
| 2026-04-28 21:20 | 36.42057 | 28.13606 | 447 ft | 169 kts | 248° |
| 2026-04-28 21:20 | 36.41621 | 28.12360 | 363 ft | 149 kts | 249° |
| 2026-04-28 21:20 | 36.41393 | 28.11558 | 240 ft | 138 kts | 252° |
| 2026-04-28 21:20 | 36.41330 | 28.11312 | 205 ft | 136 kts | 251° |
| 2026-04-28 21:21 | 36.40999 | 28.10200 | 45 ft | 136 kts | 248° |
| 2026-04-28 21:21 | 36.40717 | 28.09226 | 30 ft | 94 kts | 251° |
| 2026-04-28 21:21 | 36.40606 | 28.08850 | 28 ft | 59 kts | 249° |
| 2026-04-28 21:21 | 36.40541 | 28.08624 | 27 ft | 35 kts | 251° |
| 2026-04-28 21:22 | 36.40488 | 28.08611 | 27 ft | 10 kts | 122° |
| 2026-04-28 21:22 | 36.40448 | 28.08699 | 27 ft | 13 kts | 113° |
| 2026-04-28 21:22 | 36.40405 | 28.08810 | 28 ft | 16 kts | 117° |
| 2026-04-28 21:22 | 36.40396 | 28.08899 | 28 ft | 16 kts | 91° |
| 2026-04-28 21:23 | 36.40397 | 28.08968 | 28 ft | 4 kts | 89° |
| 2026-04-28 21:23 | 36.40382 | 28.09001 | 28 ft | 6 kts | 134° |
| 2026-04-28 21:23 | 36.40336 | 28.09028 | 28 ft | 5 kts | 159° |
| 2026-04-28 21:23 | 36.40334 | 28.09029 | 28 ft | 0 kts | 159° |